createdAt,value
2018-03-21T00:01:46.801Z,12.10
2018-03-21T00:02:46.818Z,12.30
2018-03-21T00:03:46.815Z,10.30
2018-03-21T00:04:46.164Z,10.10
2018-03-21T00:05:46.824Z,9.30
2018-03-21T00:06:46.166Z,9.30
2018-03-21T00:07:46.127Z,9.20
2018-03-21T00:08:46.331Z,12.90
2018-03-21T00:09:46.098Z,10.60
2018-03-21T00:10:46.118Z,8.80
2018-03-21T00:11:46.091Z,8.80
2018-03-21T00:12:46.091Z,7.90
2018-03-21T00:13:46.363Z,8.30
2018-03-21T00:14:46.832Z,7.30
2018-03-21T00:15:46.061Z,8.00
2018-03-21T00:16:46.071Z,9.70
2018-03-21T00:17:46.833Z,10.00
2018-03-21T00:18:46.065Z,9.20
2018-03-21T00:19:46.054Z,8.90
2018-03-21T00:20:46.030Z,7.80
2018-03-21T00:23:20.824Z,8.20
2018-03-21T00:24:20.544Z,7.70
2018-03-21T00:25:20.527Z,8.80
2018-03-21T00:26:20.499Z,9.60
2018-03-21T00:27:21.246Z,9.20
2018-03-21T00:28:21.250Z,11.60
2018-03-21T00:29:21.206Z,12.10
2018-03-21T00:30:21.216Z,11.50
2018-03-21T00:31:21.229Z,8.50
2018-03-21T00:32:20.497Z,8.90
2018-03-21T00:33:20.735Z,8.50
2018-03-21T00:34:20.478Z,8.70
2018-03-21T00:35:20.502Z,8.50
2018-03-21T00:36:20.470Z,7.20
2018-03-21T00:37:20.453Z,7.20
2018-03-21T00:38:20.487Z,10.20
2018-03-21T00:39:21.248Z,8.90
2018-03-21T00:40:20.414Z,8.20
2018-03-21T00:41:20.449Z,9.70
2018-03-21T00:42:20.405Z,10.10
2018-03-21T00:43:31.258Z,8.80
2018-03-21T00:44:20.410Z,9.80
2018-03-21T00:45:20.398Z,9.40
2018-03-21T00:46:21.220Z,8.30
2018-03-21T00:47:20.367Z,9.30
2018-03-21T00:48:20.349Z,9.40
2018-03-21T00:49:20.358Z,8.70
2018-03-21T00:50:21.246Z,8.90
2018-03-21T00:51:20.313Z,8.10
2018-03-21T00:52:21.216Z,9.60
2018-03-21T00:53:20.283Z,8.50
2018-03-21T00:54:21.216Z,6.90
2018-03-21T00:55:20.311Z,7.00
2018-03-21T00:56:20.307Z,6.90
2018-03-21T00:57:20.240Z,7.00
2018-03-21T00:58:21.226Z,6.60
2018-03-21T00:59:20.766Z,8.30
2018-03-21T01:00:20.239Z,8.00
2018-03-21T01:01:20.231Z,8.40
2018-03-21T01:02:20.241Z,6.90
2018-03-21T01:03:20.198Z,6.30
2018-03-21T01:05:54.803Z,6.40
2018-03-21T01:06:55.395Z,7.80
2018-03-21T01:07:54.715Z,7.40
2018-03-21T01:08:54.739Z,7.00
2018-03-21T01:09:54.694Z,6.00
2018-03-21T01:10:54.701Z,9.30
2018-03-21T01:11:54.640Z,9.00
2018-03-21T01:12:55.381Z,6.80
2018-03-21T01:13:55.395Z,7.40
2018-03-21T01:14:54.711Z,6.70
2018-03-21T01:15:54.634Z,6.00
2018-03-21T01:16:54.660Z,5.80
2018-03-21T01:17:54.627Z,5.30
2018-03-21T01:18:55.368Z,6.10
2018-03-21T01:19:54.889Z,5.20
2018-03-21T01:20:55.411Z,6.60
2018-03-21T01:21:55.409Z,6.70
2018-03-21T01:22:54.618Z,6.00
2018-03-21T01:23:54.587Z,6.20
2018-03-21T01:24:54.916Z,5.90
2018-03-21T01:27:29.342Z,6.20
2018-03-21T01:28:29.082Z,4.80
2018-03-21T01:29:29.076Z,6.90
2018-03-21T01:30:29.754Z,7.30
2018-03-21T01:31:29.030Z,7.60
2018-03-21T01:32:29.050Z,7.10
2018-03-21T01:33:29.035Z,6.90
2018-03-21T01:34:29.257Z,6.90
2018-03-21T01:35:28.974Z,7.40
2018-03-21T01:36:29.784Z,7.70
2018-03-21T01:37:28.999Z,7.30
2018-03-21T01:38:28.952Z,7.40
2018-03-21T01:39:28.980Z,8.20
2018-03-21T01:40:28.988Z,7.90
2018-03-21T01:41:28.936Z,6.90
2018-03-21T01:42:29.778Z,5.90
2018-03-21T01:43:28.916Z,6.50
2018-03-21T01:44:29.261Z,6.40
2018-03-21T01:45:28.902Z,6.60
2018-03-21T01:46:28.896Z,5.90
2018-03-21T01:49:03.628Z,7.00
2018-03-21T01:50:03.441Z,6.30
2018-03-21T01:51:03.452Z,6.00
2018-03-21T01:52:03.406Z,6.40
2018-03-21T01:53:03.404Z,6.80
2018-03-21T01:54:03.437Z,7.00
2018-03-21T01:55:03.374Z,8.00
2018-03-21T01:56:03.351Z,7.00
2018-03-21T01:57:04.114Z,6.90
2018-03-21T01:58:03.353Z,6.20
2018-03-21T01:59:03.382Z,7.30
2018-03-21T02:00:04.099Z,6.60
2018-03-21T02:01:03.304Z,6.80
2018-03-21T02:02:03.272Z,6.70
2018-03-21T02:03:04.124Z,7.70
2018-03-21T02:04:03.628Z,7.60
2018-03-21T02:05:03.283Z,7.70
2018-03-21T02:06:03.247Z,8.50
2018-03-21T02:07:04.100Z,8.10
2018-03-21T02:08:03.244Z,8.00
2018-03-21T02:09:29.611Z,8.10
2018-03-21T02:10:03.238Z,8.70
2018-03-21T02:11:04.088Z,7.30
2018-03-21T02:12:03.168Z,7.60
2018-03-21T02:13:04.089Z,6.40
2018-03-21T02:14:03.209Z,6.40
2018-03-21T02:15:03.153Z,6.30
2018-03-21T02:16:04.083Z,6.90
2018-03-21T02:17:03.137Z,6.60
2018-03-21T02:18:04.069Z,6.10
2018-03-21T02:19:04.113Z,6.30
2018-03-21T02:20:03.088Z,6.50
2018-03-21T02:21:04.084Z,5.10
2018-03-21T02:22:03.074Z,6.30
2018-03-21T02:23:03.597Z,6.90
2018-03-21T02:24:03.588Z,6.00
2018-03-21T02:25:03.622Z,6.20
2018-03-21T02:26:03.038Z,5.70
2018-03-21T02:27:03.546Z,6.90
2018-03-21T02:28:03.047Z,6.40
2018-03-21T02:29:03.570Z,6.80
2018-03-21T02:31:37.665Z,8.00
2018-03-21T02:32:37.565Z,7.50
2018-03-21T02:33:38.215Z,7.70
2018-03-21T02:34:37.535Z,6.50
2018-03-21T02:35:38.188Z,7.10
2018-03-21T02:36:38.222Z,7.70
2018-03-21T02:37:37.509Z,8.30
2018-03-21T02:38:37.542Z,7.10
2018-03-21T02:39:37.499Z,7.10
2018-03-21T02:40:37.456Z,7.50
2018-03-21T02:41:37.423Z,7.20
2018-03-21T02:42:37.391Z,6.90
2018-03-21T02:43:37.418Z,5.50
2018-03-21T02:44:37.726Z,6.30
2018-03-21T02:45:37.444Z,5.60
2018-03-21T02:46:37.416Z,5.10
2018-03-21T02:47:37.379Z,5.80
2018-03-21T02:48:38.151Z,6.20
2018-03-21T02:49:37.399Z,7.10
2018-03-21T02:50:37.346Z,7.50
2018-03-21T02:53:12.132Z,5.90
2018-03-21T02:54:11.981Z,6.30
2018-03-21T02:55:11.865Z,6.20
2018-03-21T02:56:12.545Z,8.40
2018-03-21T02:57:12.504Z,8.00
2018-03-21T02:58:11.873Z,8.00
2018-03-21T02:59:11.835Z,9.20
2018-03-21T03:00:12.063Z,6.60
2018-03-21T03:01:11.834Z,5.70
2018-03-21T03:02:11.822Z,6.00
2018-03-21T03:03:11.803Z,6.00
2018-03-21T03:04:11.790Z,7.20
2018-03-21T03:05:11.813Z,8.10
2018-03-21T03:06:11.798Z,6.30
2018-03-21T03:07:11.747Z,6.40
2018-03-21T03:08:11.756Z,7.20
2018-03-21T03:09:12.543Z,6.40
2018-03-21T03:10:11.727Z,6.50
2018-03-21T03:11:11.713Z,6.30
2018-03-21T03:12:12.565Z,5.70
2018-03-21T03:14:46.543Z,6.70
2018-03-21T03:15:46.245Z,6.40
2018-03-21T03:16:46.190Z,6.50
2018-03-21T03:17:46.904Z,6.30
2018-03-21T03:18:46.180Z,6.20
2018-03-21T03:19:46.915Z,6.50
2018-03-21T03:20:46.153Z,7.10
2018-03-21T03:21:46.881Z,6.30
2018-03-21T03:22:46.890Z,7.30
2018-03-21T03:23:46.930Z,8.20
2018-03-21T03:24:46.162Z,6.60
2018-03-21T03:25:46.155Z,6.10
2018-03-21T03:26:46.088Z,7.00
2018-03-21T03:27:46.920Z,7.00
2018-03-21T03:28:46.076Z,6.00
2018-03-21T03:29:46.413Z,6.70
2018-03-21T03:30:46.881Z,7.00
2018-03-21T03:31:46.030Z,6.10
2018-03-21T03:32:46.011Z,5.80
2018-03-21T03:33:45.982Z,6.10
2018-03-21T03:35:07.072Z,5.40
2018-03-21T03:35:45.981Z,5.50
2018-03-21T03:36:45.971Z,6.30
2018-03-21T03:37:45.964Z,6.60
2018-03-21T03:38:45.953Z,6.10
2018-03-21T03:39:45.963Z,7.60
2018-03-21T03:40:45.912Z,8.50
2018-03-21T03:41:45.897Z,8.50
2018-03-21T03:42:45.905Z,7.60
2018-03-21T03:43:45.892Z,7.20
2018-03-21T03:44:45.925Z,6.40
2018-03-21T03:45:45.857Z,5.80
2018-03-21T03:46:45.878Z,6.50
2018-03-21T03:47:45.848Z,5.80
2018-03-21T03:48:45.827Z,7.00
2018-03-21T03:49:45.877Z,5.90
2018-03-21T03:50:45.784Z,5.20
2018-03-21T03:51:45.814Z,5.10
2018-03-21T03:52:45.779Z,5.90
2018-03-21T03:53:45.782Z,6.00
2018-03-21T03:54:45.816Z,6.50
2018-03-21T03:55:45.858Z,5.90
2018-03-21T03:56:45.749Z,5.90
2018-03-21T03:57:45.716Z,5.40
2018-03-21T03:58:45.715Z,7.20
2018-03-21T03:59:45.750Z,7.70
2018-03-21T04:00:45.688Z,6.70
2018-03-21T04:01:45.662Z,6.70
2018-03-21T04:02:45.656Z,7.30
2018-03-21T04:03:45.791Z,6.60
2018-03-21T04:04:45.696Z,6.90
2018-03-21T04:05:45.665Z,6.80
2018-03-21T04:06:45.617Z,6.90
2018-03-21T04:07:45.597Z,6.10
2018-03-21T04:08:45.642Z,7.10
2018-03-21T04:09:45.591Z,6.70
2018-03-21T04:10:45.569Z,6.50
2018-03-21T04:11:45.559Z,6.40
2018-03-21T04:12:45.565Z,6.70
2018-03-21T04:13:45.601Z,6.70
2018-03-21T04:14:45.515Z,7.50
2018-03-21T04:15:45.535Z,7.30
2018-03-21T04:18:21.283Z,8.00
2018-03-21T04:19:21.246Z,6.80
2018-03-21T04:20:21.043Z,6.80
2018-03-21T04:21:21.043Z,7.60
2018-03-21T04:22:21.029Z,6.80
2018-03-21T04:23:21.240Z,7.20
2018-03-21T04:24:21.006Z,8.10
2018-03-21T04:25:21.001Z,9.20
2018-03-21T04:26:20.980Z,9.20
2018-03-21T04:27:20.993Z,8.30
2018-03-21T04:28:20.982Z,9.90
2018-03-21T04:29:20.907Z,12.00
2018-03-21T04:30:20.897Z,10.50
2018-03-21T04:31:20.881Z,11.10
2018-03-21T04:32:20.880Z,12.40
2018-03-21T04:33:20.894Z,11.90
2018-03-21T04:34:20.866Z,12.20
2018-03-21T04:35:20.863Z,14.10
2018-03-21T04:36:20.838Z,10.70
2018-03-21T04:37:20.857Z,9.90
2018-03-21T04:39:56.536Z,6.40
2018-03-21T04:40:56.331Z,6.50
2018-03-21T04:41:56.336Z,11.00
2018-03-21T04:42:56.325Z,8.40
2018-03-21T04:43:56.299Z,14.00
2018-03-21T04:44:56.258Z,15.90
2018-03-21T04:45:56.246Z,20.10
2018-03-21T04:46:56.256Z,12.40
2018-03-21T04:47:56.288Z,18.60
2018-03-21T04:48:56.239Z,27.70
2018-03-21T04:49:56.216Z,10.70
2018-03-21T04:50:56.203Z,9.20
2018-03-21T04:51:56.192Z,15.30
2018-03-21T04:52:56.218Z,14.00
2018-03-21T04:53:56.172Z,14.50
2018-03-21T04:54:56.157Z,10.30
2018-03-21T04:55:56.128Z,9.90
2018-03-21T04:56:56.134Z,13.80
2018-03-21T04:57:56.190Z,16.90
2018-03-21T04:58:56.129Z,16.30
2018-03-21T05:01:30.891Z,9.10
2018-03-21T05:02:31.334Z,8.80
2018-03-21T05:03:30.612Z,11.90
2018-03-21T05:04:30.611Z,12.80
2018-03-21T05:05:30.618Z,12.50
2018-03-21T05:06:30.588Z,10.10
2018-03-21T05:07:30.604Z,9.00
2018-03-21T05:08:30.614Z,8.10
2018-03-21T05:09:30.583Z,8.00
2018-03-21T05:10:30.573Z,8.70
2018-03-21T05:11:30.608Z,10.20
2018-03-21T05:12:30.555Z,9.30
2018-03-21T05:13:30.591Z,8.20
2018-03-21T05:14:30.498Z,9.80
2018-03-21T05:15:30.497Z,6.70
2018-03-21T05:16:30.509Z,6.20
2018-03-21T05:17:30.465Z,7.00
2018-03-21T05:18:30.507Z,7.10
2018-03-21T05:19:30.452Z,8.10
2018-03-21T05:20:30.452Z,10.70
2018-03-21T05:23:06.060Z,15.30
2018-03-21T05:24:05.997Z,14.70
2018-03-21T05:25:05.962Z,9.40
2018-03-21T05:26:05.939Z,9.20
2018-03-21T05:27:05.942Z,11.90
2018-03-21T05:28:06.486Z,9.30
2018-03-21T05:29:05.964Z,8.70
2018-03-21T05:30:05.904Z,10.00
2018-03-21T05:31:05.866Z,12.30
2018-03-21T05:32:05.873Z,9.70
2018-03-21T05:33:05.902Z,15.50
2018-03-21T05:34:05.872Z,18.40
2018-03-21T05:35:05.846Z,13.80
2018-03-21T05:36:05.816Z,14.50
2018-03-21T05:37:05.849Z,8.50
2018-03-21T05:38:05.826Z,11.40
2018-03-21T05:39:05.765Z,11.10
2018-03-21T05:40:05.770Z,8.70
2018-03-21T05:41:05.774Z,8.90
2018-03-21T05:42:05.731Z,9.40
2018-03-21T05:44:40.389Z,13.10
2018-03-21T05:45:40.243Z,14.60
2018-03-21T05:46:40.226Z,13.60
2018-03-21T05:47:40.222Z,15.90
2018-03-21T05:48:40.255Z,13.40
2018-03-21T05:49:40.191Z,14.90
2018-03-21T05:50:40.201Z,14.90
2018-03-21T05:51:40.167Z,16.10
2018-03-21T05:52:40.197Z,13.30
2018-03-21T05:53:40.182Z,19.80
2018-03-21T05:54:40.179Z,17.10
2018-03-21T05:55:40.146Z,13.70
2018-03-21T05:56:40.096Z,11.30
2018-03-21T05:57:40.078Z,13.00
2018-03-21T05:58:40.139Z,16.50
2018-03-21T05:59:40.088Z,16.30
2018-03-21T06:00:40.104Z,32.80
2018-03-21T06:01:40.042Z,16.30
2018-03-21T06:02:40.036Z,21.60
2018-03-21T06:03:40.068Z,12.40
2018-03-21T06:06:14.391Z,10.20
2018-03-21T06:07:14.183Z,10.70
2018-03-21T06:08:14.156Z,12.60
2018-03-21T06:09:14.049Z,12.20
2018-03-21T06:10:14.047Z,9.80
2018-03-21T06:11:13.971Z,9.80
2018-03-21T06:12:13.976Z,13.80
2018-03-21T06:13:13.971Z,19.10
2018-03-21T06:14:14.031Z,14.10
2018-03-21T06:15:13.977Z,10.70
2018-03-21T06:16:13.978Z,15.00
2018-03-21T06:17:13.941Z,21.00
2018-03-21T06:18:13.927Z,20.80
2018-03-21T06:19:13.949Z,22.20
2018-03-21T06:20:13.901Z,20.20
2018-03-21T06:21:13.890Z,16.90
2018-03-21T06:22:13.862Z,12.60
2018-03-21T06:23:13.865Z,11.00
2018-03-21T06:24:13.903Z,12.30
2018-03-21T06:25:13.843Z,15.70
2018-03-21T06:27:48.555Z,11.70
2018-03-21T06:28:48.409Z,12.20
2018-03-21T06:29:49.055Z,14.90
2018-03-21T06:30:48.337Z,9.20
2018-03-21T06:31:48.341Z,7.50
2018-03-21T06:32:48.388Z,8.70
2018-03-21T06:33:48.316Z,9.70
2018-03-21T06:34:48.355Z,10.20
2018-03-21T06:35:48.297Z,9.30
2018-03-21T06:36:48.316Z,8.10
2018-03-21T06:37:48.323Z,6.20
2018-03-21T06:38:48.356Z,6.50
2018-03-21T06:39:48.360Z,7.70
2018-03-21T06:40:48.289Z,6.40
2018-03-21T06:41:48.255Z,6.50
2018-03-21T06:42:48.300Z,5.60
2018-03-21T06:43:48.268Z,5.70
2018-03-21T06:44:48.292Z,6.40
2018-03-21T06:45:48.232Z,5.90
2018-03-21T06:46:48.221Z,5.60
2018-03-21T06:47:53.093Z,6.70
2018-03-21T06:48:48.217Z,6.80
2018-03-21T06:49:48.237Z,8.10
2018-03-21T06:50:48.207Z,7.60
2018-03-21T06:51:48.196Z,8.30
2018-03-21T06:52:48.199Z,8.00
2018-03-21T06:53:48.186Z,8.00
2018-03-21T06:54:48.229Z,7.90
2018-03-21T06:55:48.184Z,6.90
2018-03-21T06:56:48.170Z,7.30
2018-03-21T06:57:48.162Z,7.60
2018-03-21T06:58:48.203Z,7.20
2018-03-21T06:59:48.193Z,7.60
2018-03-21T07:00:48.169Z,7.50
2018-03-21T07:01:48.159Z,7.50
2018-03-21T07:02:48.192Z,7.20
2018-03-21T07:03:48.171Z,6.90
2018-03-21T07:04:48.112Z,7.80
2018-03-21T07:05:48.138Z,7.50
2018-03-21T07:06:48.145Z,7.60
2018-03-21T07:07:48.132Z,8.00
2018-03-21T07:09:12.611Z,7.80
2018-03-21T07:09:48.149Z,7.90
2018-03-21T07:10:48.117Z,7.60
2018-03-21T07:11:48.114Z,7.50
2018-03-21T07:12:48.164Z,7.80
2018-03-21T07:13:48.164Z,7.60
2018-03-21T07:14:48.121Z,8.00
2018-03-21T07:15:48.102Z,7.70
2018-03-21T07:16:48.172Z,8.00
2018-03-21T07:17:48.098Z,8.10
2018-03-21T07:18:48.154Z,8.00
2018-03-21T07:19:48.135Z,8.40
2018-03-21T07:20:48.114Z,8.60
2018-03-21T07:21:48.098Z,8.50
2018-03-21T07:22:48.086Z,8.70
2018-03-21T07:23:48.149Z,8.20
2018-03-21T07:24:48.114Z,9.30
2018-03-21T07:25:48.090Z,9.50
2018-03-21T07:26:48.097Z,8.10
2018-03-21T07:27:48.160Z,8.50
2018-03-21T07:28:48.073Z,8.80
2018-03-21T07:29:59.075Z,9.50
2018-03-21T07:30:48.077Z,9.20
2018-03-21T07:31:48.102Z,9.20
2018-03-21T07:32:48.152Z,8.90
2018-03-21T07:33:48.082Z,9.50
2018-03-21T07:34:48.091Z,9.60
2018-03-21T07:35:48.107Z,9.50
2018-03-21T07:36:48.109Z,10.20
2018-03-21T07:37:48.143Z,10.20
2018-03-21T07:38:48.108Z,9.80
2018-03-21T07:39:48.133Z,10.10
2018-03-21T07:40:48.099Z,11.10
2018-03-21T07:41:48.152Z,7.20
2018-03-21T07:42:48.133Z,8.30
2018-03-21T07:43:48.146Z,9.40
2018-03-21T07:44:48.118Z,9.20
2018-03-21T07:45:48.091Z,7.80
2018-03-21T07:46:48.102Z,7.90
2018-03-21T07:47:48.094Z,6.80
2018-03-21T07:48:48.144Z,6.80
2018-03-21T07:49:48.104Z,6.70
2018-03-21T07:50:48.168Z,6.30
2018-03-21T07:51:48.101Z,6.40
2018-03-21T07:52:48.144Z,5.90
2018-03-21T07:53:48.113Z,6.20
2018-03-21T07:54:48.131Z,5.80
2018-03-21T07:55:48.112Z,6.90
2018-03-21T07:56:48.116Z,6.30
2018-03-21T07:57:48.181Z,5.70
2018-03-21T07:58:48.112Z,5.90
2018-03-21T07:59:48.101Z,6.00
2018-03-21T08:00:48.224Z,5.60
2018-03-21T08:01:48.121Z,6.20
2018-03-21T08:02:48.148Z,6.00
2018-03-21T08:03:48.214Z,6.40
2018-03-21T08:04:48.509Z,6.60
2018-03-21T08:05:48.514Z,6.10
2018-03-21T08:06:48.154Z,6.20
2018-03-21T08:07:48.147Z,6.00
2018-03-21T08:08:48.197Z,5.90
2018-03-21T08:09:48.143Z,6.30
2018-03-21T08:10:48.468Z,6.00
2018-03-21T08:11:48.163Z,5.70
2018-03-21T08:12:48.197Z,5.90
2018-03-21T08:13:48.232Z,5.90
2018-03-21T08:14:48.177Z,5.90
2018-03-21T08:15:48.192Z,6.30
2018-03-21T08:16:48.175Z,6.20
2018-03-21T08:17:48.198Z,6.20
2018-03-21T08:18:48.224Z,6.00
2018-03-21T08:19:48.208Z,6.30
2018-03-21T08:20:49.134Z,5.50
2018-03-21T08:21:48.218Z,5.30
2018-03-21T08:22:48.206Z,6.10
2018-03-21T08:23:48.245Z,8.40
2018-03-21T08:24:48.210Z,11.20
2018-03-21T08:25:48.227Z,12.30
2018-03-21T08:26:48.616Z,11.30
2018-03-21T08:27:48.248Z,10.60
2018-03-21T08:28:48.256Z,9.00
2018-03-21T08:29:48.262Z,7.60
2018-03-21T08:30:48.234Z,6.40
2018-03-21T08:31:48.332Z,5.50
2018-03-21T08:32:48.256Z,4.50
2018-03-21T08:33:48.342Z,4.10
2018-03-21T08:34:48.254Z,3.70
2018-03-21T08:35:48.272Z,3.90
2018-03-21T08:36:48.265Z,3.90
2018-03-21T08:37:48.267Z,3.60
2018-03-21T08:38:48.311Z,3.50
2018-03-21T08:39:48.277Z,4.40
2018-03-21T08:40:48.292Z,3.90
2018-03-21T08:41:48.355Z,3.70
2018-03-21T08:42:48.288Z,3.60
2018-03-21T08:43:48.354Z,3.00
2018-03-21T08:44:48.325Z,3.50
2018-03-21T08:45:48.326Z,3.90
2018-03-21T08:46:48.342Z,3.90
2018-03-21T08:47:48.319Z,3.50
2018-03-21T08:48:48.359Z,3.60
2018-03-21T08:49:48.313Z,3.50
2018-03-21T08:50:48.343Z,3.70
2018-03-21T08:51:48.343Z,3.50
2018-03-21T08:52:48.368Z,2.90
2018-03-21T08:53:48.402Z,3.40
2018-03-21T08:54:48.356Z,3.60
2018-03-21T08:55:48.380Z,3.80
2018-03-21T08:56:48.378Z,3.50
2018-03-21T08:57:48.385Z,3.30
2018-03-21T08:58:48.459Z,3.40
2018-03-21T08:59:48.406Z,3.50
2018-03-21T09:00:48.420Z,3.50
2018-03-21T09:01:48.416Z,3.60
2018-03-21T09:02:48.428Z,2.90
2018-03-21T09:03:48.496Z,4.10
2018-03-21T09:04:48.504Z,3.70
2018-03-21T09:05:48.454Z,4.10
2018-03-21T09:06:48.482Z,3.80
2018-03-21T09:07:48.500Z,3.80
2018-03-21T09:08:48.472Z,3.80
2018-03-21T09:09:48.447Z,3.60
2018-03-21T09:10:48.508Z,4.10
2018-03-21T09:11:48.495Z,3.50
2018-03-21T09:12:48.538Z,3.00
2018-03-21T09:13:48.512Z,3.20
2018-03-21T09:14:48.527Z,3.10
2018-03-21T09:15:48.503Z,3.90
2018-03-21T09:16:48.549Z,3.70
2018-03-21T09:17:48.592Z,3.30
2018-03-21T09:18:48.539Z,4.00
2018-03-21T09:19:48.516Z,3.90
2018-03-21T09:20:48.532Z,4.00
2018-03-21T09:21:48.557Z,4.00
2018-03-21T09:22:48.605Z,3.90
2018-03-21T09:23:48.609Z,3.80
2018-03-21T09:24:48.569Z,4.10
2018-03-21T09:25:48.574Z,3.70
2018-03-21T09:26:48.583Z,3.70
2018-03-21T09:27:48.624Z,4.10
2018-03-21T09:28:48.609Z,3.90
2018-03-21T09:29:48.614Z,3.70
2018-03-21T09:30:48.617Z,4.00
2018-03-21T09:31:48.614Z,3.30
2018-03-21T09:32:48.688Z,3.70
2018-03-21T09:33:48.637Z,4.10
2018-03-21T09:34:48.639Z,3.90
2018-03-21T09:35:48.643Z,3.60
2018-03-21T09:36:48.679Z,3.70
2018-03-21T09:37:48.711Z,3.60
2018-03-21T09:38:48.676Z,4.00
2018-03-21T09:39:48.698Z,3.80
2018-03-21T09:40:48.730Z,3.90
2018-03-21T09:41:48.717Z,3.90
2018-03-21T09:42:48.777Z,3.80
2018-03-21T09:43:48.724Z,3.20
2018-03-21T09:44:48.739Z,3.40
2018-03-21T09:45:48.740Z,3.30
2018-03-21T09:46:48.757Z,3.10
2018-03-21T09:47:48.842Z,3.00
2018-03-21T09:48:48.774Z,2.90
2018-03-21T09:49:48.777Z,3.30
2018-03-21T09:50:48.820Z,2.40
2018-03-21T09:51:48.803Z,2.30
2018-03-21T09:52:48.843Z,1.80
2018-03-21T09:53:48.803Z,2.20
2018-03-21T09:54:48.823Z,2.20
2018-03-21T09:55:48.873Z,2.40
2018-03-21T09:56:48.842Z,2.60
2018-03-21T09:57:48.913Z,2.10
2018-03-21T09:58:48.855Z,2.10
2018-03-21T09:59:48.867Z,2.10
2018-03-21T10:00:48.903Z,2.40
2018-03-21T10:01:48.903Z,2.00
2018-03-21T10:02:48.933Z,1.90
2018-03-21T10:03:48.917Z,1.80
2018-03-21T10:04:48.930Z,1.70
2018-03-21T10:05:48.922Z,1.90
2018-03-21T10:06:48.939Z,2.00
2018-03-21T10:07:49.006Z,2.20
2018-03-21T10:08:48.990Z,2.30
2018-03-21T10:09:48.969Z,2.80
2018-03-21T10:10:48.973Z,1.90
2018-03-21T10:11:48.999Z,2.20
2018-03-21T10:12:49.013Z,2.10
2018-03-21T10:13:49.079Z,2.00
2018-03-21T10:14:49.026Z,2.00
2018-03-21T10:15:49.101Z,2.00
2018-03-21T10:16:49.042Z,2.40
2018-03-21T10:17:49.065Z,2.20
2018-03-21T10:18:49.127Z,2.40
2018-03-21T10:19:49.102Z,2.60
2018-03-21T10:20:49.088Z,2.40
2018-03-21T10:21:50.010Z,2.40
2018-03-21T10:22:49.143Z,2.30
2018-03-21T10:23:49.951Z,2.50
2018-03-21T10:24:49.146Z,2.10
2018-03-21T10:25:49.221Z,2.10
2018-03-21T10:26:49.170Z,1.90
2018-03-21T10:27:49.709Z,2.20
2018-03-21T10:28:49.191Z,2.40
2018-03-21T10:29:49.309Z,2.00
2018-03-21T10:30:49.194Z,2.20
2018-03-21T10:31:49.388Z,2.30
2018-03-21T10:32:49.299Z,2.20
2018-03-21T10:33:49.319Z,2.30
2018-03-21T10:34:49.270Z,2.80
2018-03-21T10:35:49.278Z,2.80
2018-03-21T10:36:49.280Z,2.60
2018-03-21T10:37:49.299Z,2.10
2018-03-21T10:38:49.348Z,2.10
2018-03-21T10:39:49.327Z,1.50
2018-03-21T10:40:49.347Z,1.80
2018-03-21T10:41:49.361Z,1.90
2018-03-21T10:42:49.358Z,2.00
2018-03-21T10:43:49.457Z,2.00
2018-03-21T10:44:49.375Z,2.10
2018-03-21T10:45:49.430Z,2.30
2018-03-21T10:46:49.425Z,2.30
2018-03-21T10:47:49.486Z,2.80
2018-03-21T10:48:49.450Z,2.60
2018-03-21T10:49:49.457Z,2.50
2018-03-21T10:50:49.464Z,2.70
2018-03-21T10:51:49.463Z,2.50
2018-03-21T10:52:49.547Z,2.50
2018-03-21T10:53:49.513Z,2.50
2018-03-21T10:54:49.493Z,2.40
2018-03-21T10:55:49.495Z,2.50
2018-03-21T10:56:49.553Z,2.70
2018-03-21T10:57:49.582Z,2.70
2018-03-21T10:58:49.549Z,2.90
2018-03-21T10:59:49.600Z,3.00
2018-03-21T11:00:49.603Z,3.40
2018-03-21T11:01:49.584Z,3.50
2018-03-21T11:02:49.635Z,2.60
2018-03-21T11:03:49.604Z,2.50
2018-03-21T11:04:49.602Z,2.50
2018-03-21T11:05:49.662Z,2.70
2018-03-21T11:06:49.640Z,2.90
2018-03-21T11:07:49.700Z,2.40
2018-03-21T11:08:49.657Z,2.40
2018-03-21T11:09:49.683Z,2.30
2018-03-21T11:10:49.741Z,3.00
2018-03-21T11:11:49.705Z,2.50
2018-03-21T11:12:49.776Z,2.40
2018-03-21T11:13:49.742Z,2.50
2018-03-21T11:14:49.739Z,2.20
2018-03-21T11:15:49.755Z,2.20
2018-03-21T11:16:49.748Z,2.20
2018-03-21T11:17:49.817Z,2.10
2018-03-21T11:18:49.767Z,1.90
2018-03-21T11:19:49.813Z,2.00
2018-03-21T11:20:49.815Z,1.90
2018-03-21T11:21:49.807Z,2.00
2018-03-21T11:22:49.867Z,2.10
2018-03-21T11:23:49.872Z,2.10
2018-03-21T11:24:49.846Z,1.80
2018-03-21T11:25:49.860Z,2.70
2018-03-21T11:26:49.873Z,2.10
2018-03-21T11:27:49.915Z,2.10
2018-03-21T11:28:49.887Z,2.10
2018-03-21T11:29:49.899Z,2.00
2018-03-21T11:30:49.941Z,2.00
2018-03-21T11:31:49.913Z,2.10
2018-03-21T11:32:49.964Z,1.90
2018-03-21T11:33:49.929Z,2.00
2018-03-21T11:34:49.944Z,1.90
2018-03-21T11:35:50.004Z,2.00
2018-03-21T11:36:49.958Z,2.30
2018-03-21T11:37:50.031Z,2.00
2018-03-21T11:38:49.989Z,2.50
2018-03-21T11:39:50.020Z,2.10
2018-03-21T11:40:50.025Z,2.10
2018-03-21T11:41:50.013Z,2.20
2018-03-21T11:42:50.017Z,1.80
2018-03-21T11:43:50.069Z,1.90
2018-03-21T11:44:50.032Z,1.90
2018-03-21T11:45:50.054Z,2.10
2018-03-21T11:46:50.047Z,1.90
2018-03-21T11:47:50.096Z,1.70
2018-03-21T11:48:50.134Z,1.70
2018-03-21T11:49:50.093Z,1.70
2018-03-21T11:50:50.089Z,1.80
2018-03-21T11:51:50.108Z,1.80
2018-03-21T11:52:50.104Z,1.70
2018-03-21T11:53:50.168Z,1.70
2018-03-21T11:54:50.152Z,1.50
2018-03-21T11:55:50.155Z,1.70
2018-03-21T11:56:50.159Z,1.60
2018-03-21T11:57:50.213Z,2.00
2018-03-21T11:58:50.186Z,1.70
2018-03-21T11:59:50.192Z,1.80
2018-03-21T12:00:50.203Z,1.60
2018-03-21T12:01:50.209Z,1.40
2018-03-21T12:02:50.309Z,1.60
2018-03-21T12:03:50.234Z,1.60
2018-03-21T12:04:50.241Z,1.90
2018-03-21T12:05:50.274Z,1.60
2018-03-21T12:06:50.252Z,1.60
2018-03-21T12:07:50.323Z,1.80
2018-03-21T12:08:50.282Z,1.60
2018-03-21T12:09:50.293Z,1.80
2018-03-21T12:10:50.295Z,2.00
2018-03-21T12:11:50.348Z,1.40
2018-03-21T12:12:50.349Z,1.80
2018-03-21T12:13:50.343Z,1.90
2018-03-21T12:14:50.353Z,1.40
2018-03-21T12:15:50.365Z,1.60
2018-03-21T12:16:50.373Z,1.40
2018-03-21T12:17:50.445Z,1.50
2018-03-21T12:18:50.403Z,1.50
2018-03-21T12:19:50.424Z,1.60
2018-03-21T12:20:50.398Z,1.50
2018-03-21T12:21:50.422Z,1.40
2018-03-21T12:22:50.475Z,1.40
2018-03-21T12:23:50.467Z,1.50
2018-03-21T12:24:50.445Z,1.20
2018-03-21T12:25:50.467Z,1.30
2018-03-21T12:26:50.474Z,1.40
2018-03-21T12:27:50.524Z,1.20
2018-03-21T12:28:50.507Z,1.40
2018-03-21T12:29:50.504Z,1.30
2018-03-21T12:30:50.503Z,1.30
2018-03-21T12:31:50.533Z,1.40
2018-03-21T12:32:50.611Z,2.50
2018-03-21T12:33:50.553Z,4.10
2018-03-21T12:34:50.537Z,2.30
2018-03-21T12:35:50.569Z,1.80
2018-03-21T12:36:50.577Z,1.30
2018-03-21T12:37:50.634Z,1.20
2018-03-21T12:38:50.565Z,1.20
2018-03-21T12:39:50.603Z,1.20
2018-03-21T12:40:50.607Z,1.10
2018-03-21T12:41:50.625Z,1.20
2018-03-21T12:42:50.679Z,1.30
2018-03-21T12:43:50.654Z,1.20
2018-03-21T12:44:50.626Z,1.40
2018-03-21T12:45:50.645Z,1.10
2018-03-21T12:46:50.656Z,1.20
2018-03-21T12:47:50.724Z,1.20
2018-03-21T12:48:50.668Z,1.10
2018-03-21T12:49:50.676Z,1.20
2018-03-21T12:50:50.693Z,1.10
2018-03-21T12:51:50.704Z,1.40
2018-03-21T12:52:50.773Z,1.30
2018-03-21T12:53:50.704Z,1.20
2018-03-21T12:54:50.725Z,0.90
2018-03-21T12:55:50.762Z,1.30
2018-03-21T12:56:50.757Z,1.10
2018-03-21T12:57:50.798Z,1.50
2018-03-21T12:58:50.756Z,2.70
2018-03-21T12:59:50.782Z,28.60
2018-03-21T13:00:50.798Z,12.10
2018-03-21T13:01:50.819Z,4.80
2018-03-21T13:02:50.863Z,2.30
2018-03-21T13:03:50.812Z,1.30
2018-03-21T13:04:50.820Z,1.40
2018-03-21T13:05:50.919Z,11.50
2018-03-21T13:06:50.854Z,6.40
2018-03-21T13:07:50.897Z,1.50
2018-03-21T13:08:50.872Z,1.20
2018-03-21T13:09:50.884Z,1.40
2018-03-21T13:10:50.884Z,1.40
2018-03-21T13:11:50.888Z,1.30
2018-03-21T13:12:50.941Z,1.50
2018-03-21T13:13:50.900Z,1.60
2018-03-21T13:14:50.948Z,1.60
2018-03-21T13:15:50.933Z,1.20
2018-03-21T13:16:50.934Z,2.10
2018-03-21T13:17:50.967Z,1.30
2018-03-21T13:18:50.954Z,1.80
2018-03-21T13:19:50.948Z,1.60
2018-03-21T13:20:50.982Z,1.20
2018-03-21T13:21:50.983Z,1.40
2018-03-21T13:22:51.014Z,1.50
2018-03-21T13:23:50.997Z,1.40
2018-03-21T13:24:50.983Z,1.80
2018-03-21T13:25:50.991Z,1.40
2018-03-21T13:26:50.987Z,1.20
2018-03-21T13:27:51.062Z,1.20
2018-03-21T13:28:51.020Z,1.20
2018-03-21T13:29:51.024Z,1.60
2018-03-21T13:30:51.044Z,5.10
2018-03-21T13:31:51.067Z,3.20
2018-03-21T13:32:51.100Z,2.20
2018-03-21T13:33:51.063Z,2.40
2018-03-21T13:34:51.069Z,2.70
2018-03-21T13:35:51.104Z,2.00
2018-03-21T13:36:51.087Z,3.40
2018-03-21T13:37:51.145Z,1.60